X  CloseMetar Aviation Weather Data     EGUL RAF Lakenheath

Temperature

16°C Temperature

2°C Dewpoint

39% Humidity



Wind

21 KM/H

13 MPH

 6 M/S

11 KTS



170°
Due South
Current Conditions

Partly Cloudy Partly Cloudy
Pressure 1019.32 (hPa) - 30.1 (in)
Visibility 6.2 (mi) - 10 (km)
Airport
Airport-code EGUL

Location RAF Lakenheath 6 (mi)

Metar:
EGUL 041356Z AUTO 17011G17KT 9999 FEW060 16/02 A3010 RMK AO2 SLP196 T01630023 $

Time: 04-04-2020 14:56